createdAt,value
2024-03-13T00:01:11.675Z,4.03
2024-03-13T00:03:38.564Z,3.83
2024-03-13T00:06:05.920Z,3.42
2024-03-13T00:08:32.878Z,3.80
2024-03-13T00:10:59.813Z,3.47
2024-03-13T00:13:28.981Z,3.35
2024-03-13T00:15:59.063Z,3.88
2024-03-13T00:18:25.974Z,3.45
2024-03-13T00:20:52.662Z,3.83
2024-03-13T00:23:19.750Z,3.60
2024-03-13T00:25:46.650Z,3.40
2024-03-13T00:28:13.454Z,4.03
2024-03-13T00:30:42.000Z,3.67
2024-03-13T00:33:09.486Z,3.85
2024-03-13T00:35:37.266Z,3.42
2024-03-13T00:38:04.944Z,3.65
2024-03-13T00:40:31.860Z,3.47
2024-03-13T00:42:58.839Z,3.35
2024-03-13T00:45:25.623Z,4.30
2024-03-13T00:47:55.282Z,3.97
2024-03-13T00:50:22.367Z,3.67
2024-03-13T00:52:50.050Z,3.72
2024-03-13T00:55:17.773Z,3.53
2024-03-13T00:57:44.814Z,3.65
2024-03-13T01:00:12.383Z,3.40
2024-03-13T01:02:42.067Z,3.33
2024-03-13T01:05:09.121Z,3.97
2024-03-13T01:07:36.254Z,4.15
2024-03-13T01:10:05.133Z,3.75
2024-03-13T01:12:32.072Z,3.47
2024-03-13T01:14:58.785Z,3.88
2024-03-13T01:17:25.545Z,3.28
2024-03-13T01:19:52.712Z,3.60
2024-03-13T01:22:20.400Z,3.13
2024-03-13T01:24:47.452Z,3.53
2024-03-13T01:27:14.458Z,3.65
2024-03-13T01:29:47.432Z,3.47
2024-03-13T01:32:15.876Z,3.80
2024-03-13T01:34:42.711Z,4.13
2024-03-13T01:37:27.939Z,3.50
2024-03-13T01:39:54.895Z,3.50
2024-03-13T01:42:40.061Z,4.22
2024-03-13T01:45:28.105Z,4.30
2024-03-13T01:48:18.356Z,4.10
2024-03-13T01:51:05.592Z,4.00
2024-03-13T01:53:53.814Z,3.70
2024-03-13T01:56:26.173Z,4.05
2024-03-13T01:59:04.717Z,3.95
2024-03-13T02:01:51.126Z,4.10
2024-03-13T02:04:18.329Z,4.25
2024-03-13T02:06:47.355Z,4.40
2024-03-13T02:09:14.855Z,4.25
2024-03-13T02:11:42.866Z,3.22
2024-03-13T02:14:09.661Z,3.67
2024-03-13T02:16:36.415Z,4.07
2024-03-13T02:19:03.976Z,4.05
2024-03-13T02:21:34.052Z,3.33
2024-03-13T02:24:00.933Z,3.78
2024-03-13T02:26:27.750Z,4.07
2024-03-13T02:28:54.430Z,4.22
2024-03-13T02:31:21.291Z,3.67
2024-03-13T02:33:48.292Z,3.78
2024-03-13T02:36:15.408Z,3.72
2024-03-13T02:38:42.373Z,3.83
2024-03-13T02:41:09.171Z,3.67
2024-03-13T02:43:38.116Z,3.35
2024-03-13T02:46:05.239Z,3.67
2024-03-13T02:48:32.197Z,3.72
2024-03-13T02:50:59.402Z,4.60
2024-03-13T02:53:27.136Z,3.88
2024-03-13T02:55:55.282Z,4.57
2024-03-13T02:58:25.293Z,4.07
2024-03-13T03:00:52.575Z,4.05
2024-03-13T03:03:19.880Z,4.32
2024-03-13T03:05:47.270Z,4.95
2024-03-13T03:08:16.096Z,4.78
2024-03-13T03:10:43.302Z,5.10
2024-03-13T03:13:11.756Z,5.20
2024-03-13T03:15:40.257Z,5.18
2024-03-13T03:18:07.848Z,5.15
2024-03-13T03:20:34.770Z,5.43
2024-03-13T03:23:01.698Z,4.75
2024-03-13T03:25:30.472Z,4.63
2024-03-13T03:28:00.348Z,5.35
2024-03-13T03:30:27.207Z,4.30
2024-03-13T03:32:55.035Z,4.55
2024-03-13T03:35:21.814Z,5.93
2024-03-13T03:37:48.947Z,5.82
2024-03-13T03:40:19.470Z,6.07
2024-03-13T03:42:48.064Z,5.30
2024-03-13T03:45:14.974Z,5.50
2024-03-13T03:47:41.711Z,5.60
2024-03-13T03:50:08.882Z,6.55
2024-03-13T03:52:35.756Z,6.55
2024-03-13T03:55:04.186Z,7.22
2024-03-13T03:57:31.461Z,6.13
2024-03-13T03:59:58.595Z,7.20
2024-03-13T04:02:25.249Z,6.68
2024-03-13T04:04:52.010Z,7.97
2024-03-13T04:07:18.765Z,7.60
2024-03-13T04:09:45.514Z,7.00
2024-03-13T04:12:12.784Z,8.07
2024-03-13T04:14:39.785Z,7.70
2024-03-13T04:17:06.539Z,7.90
2024-03-13T04:19:33.209Z,7.90
2024-03-13T04:22:00.138Z,8.73
2024-03-13T04:24:27.056Z,8.52
2024-03-13T04:26:53.770Z,7.80
2024-03-13T04:29:21.855Z,7.75
2024-03-13T04:31:49.829Z,8.65
2024-03-13T04:34:16.546Z,9.35
2024-03-13T04:36:43.875Z,9.35
2024-03-13T04:39:10.881Z,9.52
2024-03-13T04:41:41.012Z,9.38
2024-03-13T04:44:11.400Z,9.38
2024-03-13T04:46:39.583Z,8.55
2024-03-13T04:49:06.490Z,8.18
2024-03-13T04:51:33.285Z,9.20
2024-03-13T04:53:59.981Z,9.82
2024-03-13T04:56:26.952Z,8.75
2024-03-13T04:58:53.695Z,10.25
2024-03-13T05:01:20.614Z,8.65
2024-03-13T05:03:48.018Z,9.82
2024-03-13T05:06:15.110Z,9.25
2024-03-13T05:08:41.954Z,9.23
2024-03-13T05:11:12.212Z,8.85
2024-03-13T05:13:39.923Z,10.35
2024-03-13T05:16:07.588Z,9.32
2024-03-13T05:18:35.918Z,9.88
2024-03-13T05:21:02.984Z,10.02
2024-03-13T05:23:29.694Z,9.32
2024-03-13T05:25:56.980Z,10.57
2024-03-13T05:28:24.066Z,9.73
2024-03-13T05:30:50.994Z,11.15
2024-03-13T05:33:18.112Z,9.48
2024-03-13T05:35:44.944Z,10.38
2024-03-13T05:38:12.024Z,10.27
2024-03-13T05:40:38.956Z,10.27
2024-03-13T05:43:05.757Z,9.32
2024-03-13T05:45:35.971Z,9.93
2024-03-13T05:48:03.810Z,11.00
2024-03-13T05:50:30.711Z,10.20
2024-03-13T05:52:57.436Z,10.38
2024-03-13T05:55:25.620Z,10.50
2024-03-13T05:57:52.543Z,10.00
2024-03-13T06:00:20.659Z,10.68
2024-03-13T06:02:47.732Z,10.32
2024-03-13T06:05:16.190Z,10.43
2024-03-13T06:07:43.142Z,9.63
2024-03-13T06:10:13.357Z,10.38
2024-03-13T06:12:40.221Z,9.80
2024-03-13T06:15:15.190Z,10.75
2024-03-13T06:17:42.623Z,10.65
2024-03-13T06:20:14.429Z,12.05
2024-03-13T06:22:42.393Z,10.27
2024-03-13T06:25:09.969Z,10.90
2024-03-13T06:27:37.519Z,11.43
2024-03-13T06:30:04.719Z,11.05
2024-03-13T06:32:31.655Z,12.02
2024-03-13T06:34:58.978Z,11.23
2024-03-13T06:37:25.804Z,11.43
2024-03-13T06:39:54.507Z,11.60
2024-03-13T06:42:21.574Z,11.02
2024-03-13T06:44:53.774Z,11.80
2024-03-13T06:47:21.883Z,13.18
2024-03-13T06:49:48.682Z,12.85
2024-03-13T06:52:15.916Z,11.80
2024-03-13T06:54:43.293Z,12.05
2024-03-13T06:57:13.765Z,12.93
2024-03-13T06:59:40.908Z,14.13
2024-03-13T07:02:11.402Z,11.95
2024-03-13T07:04:38.248Z,13.77
2024-03-13T07:07:05.509Z,13.15
2024-03-13T07:09:32.959Z,12.68
2024-03-13T07:11:59.977Z,14.15
2024-03-13T07:14:26.670Z,14.38
2024-03-13T07:16:53.431Z,13.30
2024-03-13T07:19:21.614Z,13.98
2024-03-13T07:21:48.990Z,12.38
2024-03-13T07:24:17.504Z,13.38
2024-03-13T07:26:44.840Z,15.70
2024-03-13T07:29:11.543Z,15.18
2024-03-13T07:31:40.779Z,14.85
2024-03-13T07:34:11.556Z,15.48
2024-03-13T07:36:39.643Z,15.50
2024-03-13T07:39:12.593Z,15.27
2024-03-13T07:41:40.792Z,15.65
2024-03-13T07:44:10.993Z,16.35
2024-03-13T07:46:38.076Z,15.10
2024-03-13T07:49:05.061Z,15.98
2024-03-13T07:51:32.057Z,16.83
2024-03-13T07:53:59.617Z,15.52
2024-03-13T07:56:26.463Z,16.92
2024-03-13T07:58:54.479Z,17.52
2024-03-13T08:01:22.072Z,15.52
2024-03-13T08:03:49.076Z,16.95
2024-03-13T09:06:41.906Z,18.38
2024-03-13T09:09:09.041Z,19.42
2024-03-13T09:11:35.859Z,20.05
2024-03-13T09:14:04.942Z,18.98
2024-03-13T09:16:32.708Z,17.38
2024-03-13T09:19:00.233Z,20.15
2024-03-13T09:21:27.328Z,18.85
2024-03-13T09:23:54.198Z,18.88
2024-03-13T09:26:21.279Z,17.58
2024-03-13T09:28:48.029Z,19.25
2024-03-13T09:31:14.863Z,20.05
2024-03-13T09:33:41.925Z,18.98
2024-03-13T09:36:13.783Z,20.42
2024-03-13T09:38:42.336Z,18.38
2024-03-13T09:41:14.686Z,19.33
2024-03-13T09:43:41.739Z,19.27
2024-03-13T09:46:10.236Z,20.10
2024-03-13T09:48:44.094Z,19.65
2024-03-13T09:51:12.802Z,19.50
2024-03-13T09:53:41.779Z,19.33
2024-03-13T09:56:15.775Z,18.00
2024-03-13T09:58:47.032Z,18.35
2024-03-13T10:01:28.770Z,19.45
2024-03-13T10:04:03.342Z,19.92
2024-03-13T10:06:34.617Z,20.67
2024-03-13T10:09:05.011Z,19.45
2024-03-13T10:11:33.981Z,18.05
2024-03-13T10:14:01.426Z,21.77
2024-03-13T10:16:34.154Z,19.90
2024-03-13T10:19:02.902Z,19.55
2024-03-13T10:21:30.103Z,20.20
2024-03-13T10:23:57.878Z,20.38
2024-03-13T10:26:25.696Z,18.90
2024-03-13T10:28:52.753Z,20.17
2024-03-13T10:31:20.057Z,20.98
2024-03-13T10:33:47.520Z,21.40
2024-03-13T10:36:15.303Z,20.77
2024-03-13T10:38:43.024Z,21.50
2024-03-13T10:41:13.140Z,23.80
2024-03-13T10:43:42.167Z,21.02
2024-03-13T10:46:12.921Z,22.58
2024-03-13T10:48:42.934Z,23.83
2024-03-13T10:51:14.084Z,22.65
2024-03-13T10:53:41.140Z,23.85
2024-03-13T10:56:15.979Z,23.27
2024-03-13T10:58:47.717Z,23.60
2024-03-13T11:01:19.570Z,24.33
2024-03-13T11:03:47.896Z,22.17
2024-03-13T11:06:16.794Z,23.38
2024-03-13T11:08:43.951Z,20.90
2024-03-13T11:11:20.740Z,23.63
2024-03-13T11:13:51.772Z,24.05
2024-03-13T11:16:22.231Z,20.70
2024-03-13T11:18:52.107Z,23.48
2024-03-13T11:21:45.324Z,23.25
2024-03-13T11:24:19.755Z,24.42
2024-03-13T11:26:50.135Z,24.58
2024-03-13T11:29:16.974Z,24.38
2024-03-13T11:31:45.806Z,23.75
2024-03-13T11:34:12.788Z,20.13
2024-03-13T11:36:39.620Z,23.83
2024-03-13T11:39:07.383Z,24.23
2024-03-13T11:41:34.463Z,21.90
2024-03-13T11:44:02.003Z,22.27
2024-03-13T11:46:44.541Z,21.35
2024-03-13T11:49:11.972Z,23.15
2024-03-13T11:51:38.730Z,23.85
2024-03-13T11:54:34.572Z,21.67
2024-03-13T11:57:15.045Z,20.45
2024-03-13T11:59:44.430Z,21.30
2024-03-13T12:02:39.118Z,21.50
2024-03-13T12:05:12.260Z,21.52
2024-03-13T12:07:44.871Z,21.52
2024-03-13T12:10:18.557Z,21.08
2024-03-13T12:12:46.017Z,21.73
2024-03-13T12:15:20.463Z,20.67
2024-03-13T12:17:51.821Z,20.38
2024-03-13T12:22:47.510Z,20.90
2024-03-13T12:25:14.691Z,19.88
2024-03-13T12:27:45.865Z,20.13
2024-03-13T12:30:12.979Z,21.08
2024-03-13T12:32:39.874Z,19.80
2024-03-13T12:35:10.703Z,18.30
2024-03-13T12:37:37.674Z,19.67
2024-03-13T12:40:09.649Z,19.42
2024-03-13T12:42:38.331Z,18.38
2024-03-13T12:45:07.059Z,18.25
2024-03-13T12:47:43.108Z,19.73
2024-03-13T12:50:17.599Z,20.20
2024-03-13T12:52:46.781Z,20.67
2024-03-13T12:55:17.417Z,18.40
2024-03-13T12:57:44.169Z,19.20
2024-03-13T13:00:21.166Z,20.20
2024-03-13T13:02:55.378Z,19.75
2024-03-13T13:05:22.649Z,19.27
2024-03-13T13:07:51.042Z,20.23
2024-03-13T13:10:21.785Z,19.35
2024-03-13T13:12:50.317Z,18.60
2024-03-13T13:15:17.800Z,18.73
2024-03-13T13:17:45.453Z,18.25
2024-03-13T13:20:15.167Z,17.98
2024-03-13T13:22:42.294Z,18.65
2024-03-13T13:25:09.853Z,18.65
2024-03-13T13:27:37.073Z,17.95
2024-03-13T13:30:04.627Z,19.83
2024-03-13T13:32:31.506Z,17.63
2024-03-13T13:34:58.245Z,18.13
2024-03-13T13:37:25.153Z,18.50
2024-03-13T13:39:53.120Z,18.13
2024-03-13T13:42:19.825Z,18.00
2024-03-13T13:44:46.694Z,18.08
2024-03-13T13:47:13.354Z,18.67
2024-03-13T13:49:44.067Z,20.83
2024-03-13T13:52:10.740Z,23.05
2024-03-13T13:54:37.443Z,19.50
2024-03-13T13:57:04.230Z,17.48
2024-03-13T13:59:30.941Z,17.58
2024-03-13T14:01:57.854Z,17.23
2024-03-13T14:04:24.579Z,15.75
2024-03-13T14:06:51.290Z,17.40
2024-03-13T14:09:18.387Z,17.92
2024-03-13T14:11:45.386Z,17.88
2024-03-13T14:14:12.177Z,17.05
2024-03-13T14:16:39.128Z,17.42
2024-03-13T14:19:06.117Z,16.55
2024-03-13T14:21:32.902Z,17.10
2024-03-13T14:24:01.516Z,17.20
2024-03-13T14:26:28.260Z,16.83
2024-03-13T14:28:54.954Z,16.65
2024-03-13T14:31:21.632Z,16.38
2024-03-13T14:33:49.236Z,15.43
2024-03-13T14:36:16.387Z,17.17
2024-03-13T14:38:43.611Z,18.95
2024-03-13T14:41:14.104Z,17.85
2024-03-13T14:43:44.252Z,17.20
2024-03-13T14:46:11.089Z,18.42
2024-03-13T14:48:37.864Z,21.50
2024-03-13T14:51:04.893Z,16.67
2024-03-13T14:53:31.948Z,18.17
2024-03-13T14:55:58.676Z,18.15
2024-03-13T14:58:25.570Z,18.83
2024-03-13T15:00:53.079Z,17.15
2024-03-13T15:03:20.244Z,20.40
2024-03-13T15:05:48.901Z,21.40
2024-03-13T15:08:15.710Z,19.17
2024-03-13T15:10:43.398Z,17.30
2024-03-13T15:13:11.347Z,21.25
2024-03-13T15:15:38.159Z,20.42
2024-03-13T15:18:05.197Z,19.10
2024-03-13T15:20:33.302Z,19.20
2024-03-13T15:23:00.009Z,18.75
2024-03-13T15:25:26.767Z,19.58
2024-03-13T15:27:53.846Z,20.55
2024-03-13T15:30:20.771Z,19.58
2024-03-13T15:32:47.728Z,19.48
2024-03-13T15:35:15.122Z,20.33
2024-03-13T15:37:42.460Z,19.08
2024-03-13T15:40:12.665Z,18.83
2024-03-13T15:42:41.274Z,22.98
2024-03-13T15:45:11.226Z,19.08
2024-03-13T15:47:38.780Z,19.83
2024-03-13T15:50:10.678Z,20.58
2024-03-13T15:52:40.626Z,19.70
2024-03-13T15:55:08.179Z,21.45
2024-03-13T15:57:36.325Z,22.35
2024-03-13T16:00:10.665Z,21.80
2024-03-13T16:02:38.167Z,22.00
2024-03-13T16:05:07.319Z,21.02
2024-03-13T16:07:36.442Z,21.77
2024-03-13T16:10:06.527Z,21.75
2024-03-13T16:12:36.051Z,21.05
2024-03-13T16:15:03.406Z,26.02
2024-03-13T16:17:30.228Z,24.75
2024-03-13T16:19:56.896Z,21.42
2024-03-13T16:22:23.618Z,23.48
2024-03-13T16:24:50.760Z,22.75
2024-03-13T16:27:17.503Z,24.92
2024-03-13T16:29:44.275Z,24.10
2024-03-13T16:32:12.892Z,26.33
2024-03-13T16:34:44.501Z,20.58
2024-03-13T16:37:11.367Z,21.27
2024-03-13T16:39:38.154Z,25.35
2024-03-13T16:42:04.879Z,33.55
2024-03-13T16:44:31.913Z,23.88
2024-03-13T16:46:59.054Z,23.13
2024-03-13T16:49:25.765Z,23.35
2024-03-13T16:51:52.468Z,23.48
2024-03-13T16:54:19.724Z,24.27
2024-03-13T16:56:47.097Z,23.40
2024-03-13T16:59:13.819Z,20.48
2024-03-13T17:01:40.610Z,21.88
2024-03-13T17:04:07.350Z,22.30
2024-03-13T17:06:34.131Z,20.67
2024-03-13T17:09:01.353Z,20.30
2024-03-13T17:11:28.228Z,21.17
2024-03-13T17:13:56.584Z,35.83
2024-03-13T17:16:23.429Z,35.00
2024-03-13T17:18:50.173Z,25.92
2024-03-13T17:21:17.437Z,25.90
2024-03-13T17:23:44.174Z,26.55
2024-03-13T17:26:10.955Z,27.25
2024-03-13T17:28:39.664Z,27.48
2024-03-13T17:31:10.357Z,22.98
2024-03-13T17:33:38.919Z,31.48
2024-03-13T17:36:08.396Z,33.38
2024-03-13T17:38:35.816Z,28.02
2024-03-13T17:41:02.617Z,23.67
2024-03-13T17:43:29.382Z,22.77
2024-03-13T17:45:56.056Z,22.33
2024-03-13T17:48:23.445Z,23.77
2024-03-13T17:50:51.706Z,23.08
2024-03-13T17:53:18.629Z,21.88
2024-03-13T17:55:45.331Z,22.70
2024-03-13T17:58:24.272Z,24.20
2024-03-13T18:00:51.113Z,22.85
2024-03-13T18:03:17.963Z,24.40
2024-03-13T18:05:45.681Z,23.13
2024-03-13T18:08:12.465Z,23.70
2024-03-13T18:10:39.227Z,25.05
2024-03-13T18:13:05.914Z,24.13
2024-03-13T18:15:32.692Z,23.20
2024-03-13T18:18:00.018Z,24.70
2024-03-13T18:20:27.117Z,24.42
2024-03-13T18:22:55.201Z,25.25
2024-03-13T18:25:24.247Z,23.00
2024-03-13T18:27:50.970Z,23.90
2024-03-13T18:30:17.735Z,23.63
2024-03-13T18:32:45.993Z,22.70
2024-03-13T18:35:14.121Z,24.60
2024-03-13T18:37:40.832Z,22.95
2024-03-13T18:40:15.433Z,24.60
2024-03-13T18:42:43.098Z,23.52
2024-03-13T18:45:11.188Z,24.15
2024-03-13T18:47:43.887Z,24.75
2024-03-13T18:50:12.580Z,20.25
2024-03-13T18:52:48.139Z,25.45
2024-03-13T18:55:16.500Z,25.85
2024-03-13T18:57:44.384Z,26.20
2024-03-13T19:00:14.520Z,24.42
2024-03-13T19:02:41.671Z,25.40
2024-03-13T19:05:14.924Z,24.48
2024-03-13T19:07:49.890Z,24.35
2024-03-13T19:10:23.557Z,25.08
2024-03-13T19:12:57.236Z,25.15
2024-03-13T19:15:25.385Z,25.23
2024-03-13T19:17:53.171Z,26.70
2024-03-13T19:20:19.977Z,27.85
2024-03-13T19:22:47.353Z,24.58
2024-03-13T19:25:14.328Z,27.55
2024-03-13T19:27:41.095Z,25.70
2024-03-13T19:30:08.459Z,25.38
2024-03-13T19:32:35.529Z,26.30
2024-03-13T19:35:03.372Z,25.63
2024-03-13T19:37:30.291Z,29.00
2024-03-13T19:39:59.432Z,27.63
2024-03-13T19:42:26.365Z,25.42
2024-03-13T19:44:55.460Z,26.58
2024-03-13T19:47:23.368Z,26.30
2024-03-13T19:49:50.132Z,27.35
2024-03-13T19:52:16.834Z,24.83
2024-03-13T19:54:43.568Z,26.00
2024-03-13T19:57:10.371Z,25.65
2024-03-13T19:59:38.685Z,25.05
2024-03-13T20:02:05.578Z,24.58
2024-03-13T20:04:33.574Z,24.25
2024-03-13T20:07:00.630Z,23.55
2024-03-13T20:09:27.453Z,22.50
2024-03-13T20:11:54.207Z,21.63
2024-03-13T20:14:21.251Z,20.88
2024-03-13T20:16:48.001Z,21.85
2024-03-13T20:19:15.041Z,21.52
2024-03-13T20:21:41.793Z,20.40
2024-03-13T20:24:08.665Z,20.73
2024-03-13T20:26:42.506Z,19.77
2024-03-13T20:29:09.699Z,18.95
2024-03-13T20:31:39.264Z,20.50
2024-03-13T20:34:06.081Z,21.17
2024-03-13T20:36:37.757Z,21.13
2024-03-13T20:39:07.521Z,24.25
2024-03-13T20:41:34.474Z,21.98
2024-03-13T20:44:01.710Z,21.67
2024-03-13T20:46:28.403Z,21.10
2024-03-13T20:48:55.729Z,21.63
2024-03-13T20:51:22.933Z,21.05
2024-03-13T20:53:49.743Z,20.83
2024-03-13T20:56:16.565Z,22.65
2024-03-13T20:58:47.714Z,22.58
2024-03-13T21:01:14.859Z,24.15
2024-03-13T21:03:41.624Z,23.27
2024-03-13T21:06:08.384Z,24.80
2024-03-13T21:08:35.110Z,25.30
2024-03-13T21:11:02.576Z,23.33
2024-03-13T21:13:30.255Z,24.55
2024-03-13T21:16:00.988Z,29.13
2024-03-13T21:18:38.960Z,27.52
2024-03-13T21:21:06.724Z,27.58
2024-03-13T21:23:36.618Z,27.52
2024-03-13T21:26:10.049Z,28.08
2024-03-13T21:28:37.590Z,27.52
2024-03-13T21:31:08.198Z,27.20
2024-03-13T21:33:36.537Z,27.08
2024-03-13T21:36:04.496Z,26.55
2024-03-13T21:38:31.216Z,25.25
2024-03-13T21:41:00.074Z,25.73
2024-03-13T21:43:31.449Z,25.20
2024-03-13T21:45:59.936Z,25.45
2024-03-13T21:48:27.331Z,25.40
2024-03-13T21:50:54.284Z,24.27
2024-03-13T21:53:21.088Z,23.52
2024-03-13T21:55:47.942Z,25.38
2024-03-13T21:58:14.768Z,23.52
2024-03-13T22:00:41.768Z,23.80
2024-03-13T22:03:08.606Z,24.38
2024-03-13T22:05:35.355Z,22.42
2024-03-13T22:08:02.277Z,23.70
2024-03-13T22:10:29.678Z,22.10
2024-03-13T22:12:56.755Z,21.95
2024-03-13T22:15:24.187Z,22.40
2024-03-13T22:17:51.064Z,21.08
2024-03-13T22:20:17.878Z,23.50
2024-03-13T22:22:44.650Z,21.58
2024-03-13T22:25:11.404Z,23.27
2024-03-13T22:27:38.168Z,24.83
2024-03-13T22:30:07.586Z,25.02
2024-03-13T22:32:34.688Z,21.98
2024-03-13T22:35:01.446Z,23.20
2024-03-13T22:37:28.235Z,22.77
2024-03-13T22:39:55.260Z,23.60
2024-03-13T22:42:22.874Z,22.27
2024-03-13T22:44:49.842Z,22.80
2024-03-13T22:47:16.740Z,21.90
2024-03-13T22:49:46.180Z,22.13
2024-03-13T22:52:12.899Z,21.63
2024-03-13T22:54:39.811Z,23.52
2024-03-13T22:57:06.999Z,21.90
2024-03-13T22:59:33.816Z,21.40
2024-03-13T23:02:01.674Z,22.48
2024-03-13T23:04:28.418Z,22.73
2024-03-13T23:06:55.184Z,24.65
2024-03-13T23:09:21.871Z,19.98
2024-03-13T23:11:48.676Z,22.60
2024-03-13T23:14:15.646Z,20.50
2024-03-13T23:16:42.489Z,21.52
2024-03-13T23:19:09.244Z,21.50
2024-03-13T23:21:36.096Z,22.80
2024-03-13T23:24:04.768Z,21.35
2024-03-13T23:26:31.697Z,20.35
2024-03-13T23:28:59.541Z,21.67
2024-03-13T23:31:27.224Z,20.08
2024-03-13T23:33:54.044Z,20.75
2024-03-13T23:36:22.341Z,19.95
2024-03-13T23:38:49.489Z,21.60
2024-03-13T23:41:17.262Z,21.23
2024-03-13T23:43:45.066Z,21.17
2024-03-13T23:46:15.581Z,21.65
2024-03-13T23:48:42.699Z,21.83
2024-03-13T23:51:11.730Z,19.63
2024-03-13T23:53:38.541Z,19.33
2024-03-13T23:56:05.792Z,21.40
2024-03-13T23:58:34.100Z,19.40
